sensor_id;sensor_type;location;lat;lon;timestamp;P1;durP1;ratioP1;P2;durP2;ratioP2
20749;SDS011;10535;50.664;4.564;2023-04-23T00:01:58;25.10;;;11.90;;
20749;SDS011;10535;50.664;4.564;2023-04-23T00:05:01;24.40;;;11.73;;
20749;SDS011;10535;50.664;4.564;2023-04-23T00:08:34;24.70;;;12.13;;
20749;SDS011;10535;50.664;4.564;2023-04-23T00:11:23;25.77;;;11.33;;
20749;SDS011;10535;50.664;4.564;2023-04-23T00:14:03;23.60;;;11.97;;
20749;SDS011;10535;50.664;4.564;2023-04-23T00:19:22;27.60;;;12.60;;
20749;SDS011;10535;50.664;4.564;2023-04-23T00:22:00;26.53;;;12.17;;
20749;SDS011;10535;50.664;4.564;2023-04-23T00:24:46;24.50;;;12.37;;
20749;SDS011;10535;50.664;4.564;2023-04-23T00:28:20;25.27;;;12.00;;
20749;SDS011;10535;50.664;4.564;2023-04-23T00:30:47;25.53;;;12.13;;
20749;SDS011;10535;50.664;4.564;2023-04-23T00:33:32;23.60;;;12.07;;
20749;SDS011;10535;50.664;4.564;2023-04-23T00:39:47;20.27;;;11.87;;
20749;SDS011;10535;50.664;4.564;2023-04-23T00:42:59;24.50;;;12.80;;
20749;SDS011;10535;50.664;4.564;2023-04-23T00:45:53;25.33;;;11.50;;
20749;SDS011;10535;50.664;4.564;2023-04-23T00:48:44;21.53;;;10.73;;
20749;SDS011;10535;50.664;4.564;2023-04-23T00:52:05;23.00;;;11.00;;
20749;SDS011;10535;50.664;4.564;2023-04-23T00:55:02;19.47;;;10.83;;
20749;SDS011;10535;50.664;4.564;2023-04-23T00:58:12;22.80;;;10.30;;
20749;SDS011;10535;50.664;4.564;2023-04-23T01:00:52;20.47;;;10.70;;
20749;SDS011;10535;50.664;4.564;2023-04-23T01:03:47;20.23;;;11.20;;
20749;SDS011;10535;50.664;4.564;2023-04-23T01:06:34;21.10;;;11.30;;
20749;SDS011;10535;50.664;4.564;2023-04-23T01:09:29;24.63;;;11.40;;
20749;SDS011;10535;50.664;4.564;2023-04-23T01:12:50;17.73;;;10.43;;
20749;SDS011;10535;50.664;4.564;2023-04-23T01:15:37;20.27;;;10.77;;
20749;SDS011;10535;50.664;4.564;2023-04-23T01:18:29;18.80;;;9.77;;
20749;SDS011;10535;50.664;4.564;2023-04-23T01:21:09;21.23;;;11.33;;
20749;SDS011;10535;50.664;4.564;2023-04-23T01:23:50;22.13;;;10.10;;
20749;SDS011;10535;50.664;4.564;2023-04-23T01:26:49;21.37;;;10.97;;
20749;SDS011;10535;50.664;4.564;2023-04-23T01:30:13;20.47;;;9.77;;
20749;SDS011;10535;50.664;4.564;2023-04-23T01:33:18;18.00;;;9.77;;
20749;SDS011;10535;50.664;4.564;2023-04-23T01:35:55;18.27;;;9.83;;
20749;SDS011;10535;50.664;4.564;2023-04-23T01:38:51;21.40;;;9.50;;
20749;SDS011;10535;50.664;4.564;2023-04-23T01:41:27;18.30;;;10.17;;
20749;SDS011;10535;50.664;4.564;2023-04-23T01:44:29;20.97;;;10.17;;
20749;SDS011;10535;50.664;4.564;2023-04-23T01:47:41;15.47;;;8.83;;
20749;SDS011;10535;50.664;4.564;2023-04-23T01:50:08;21.17;;;11.03;;
20749;SDS011;10535;50.664;4.564;2023-04-23T01:53:18;24.43;;;10.53;;
20749;SDS011;10535;50.664;4.564;2023-04-23T01:56:07;23.47;;;10.23;;
20749;SDS011;10535;50.664;4.564;2023-04-23T01:59:03;23.17;;;8.53;;
20749;SDS011;10535;50.664;4.564;2023-04-23T02:01:48;20.70;;;9.30;;
20749;SDS011;10535;50.664;4.564;2023-04-23T02:04:35;16.53;;;9.33;;
20749;SDS011;10535;50.664;4.564;2023-04-23T02:07:31;16.47;;;8.77;;
20749;SDS011;10535;50.664;4.564;2023-04-23T02:10:23;15.97;;;9.13;;
20749;SDS011;10535;50.664;4.564;2023-04-23T02:13:09;16.90;;;9.60;;
20749;SDS011;10535;50.664;4.564;2023-04-23T02:15:45;16.50;;;9.63;;
20749;SDS011;10535;50.664;4.564;2023-04-23T02:18:55;15.97;;;9.00;;
20749;SDS011;10535;50.664;4.564;2023-04-23T02:22:22;15.73;;;8.40;;
20749;SDS011;10535;50.664;4.564;2023-04-23T02:25:08;14.93;;;8.40;;
20749;SDS011;10535;50.664;4.564;2023-04-23T02:27:35;15.47;;;8.47;;
20749;SDS011;10535;50.664;4.564;2023-04-23T02:30:23;12.43;;;8.20;;
20749;SDS011;10535;50.664;4.564;2023-04-23T02:33:30;15.50;;;8.90;;
20749;SDS011;10535;50.664;4.564;2023-04-23T02:36:16;14.70;;;8.40;;
20749;SDS011;10535;50.664;4.564;2023-04-23T02:38:51;15.83;;;8.67;;
20749;SDS011;10535;50.664;4.564;2023-04-23T02:41:44;16.60;;;9.27;;
20749;SDS011;10535;50.664;4.564;2023-04-23T02:44:31;19.57;;;9.27;;
20749;SDS011;10535;50.664;4.564;2023-04-23T02:47:49;21.80;;;9.77;;
20749;SDS011;10535;50.664;4.564;2023-04-23T02:50:31;13.23;;;8.13;;
20749;SDS011;10535;50.664;4.564;2023-04-23T02:53:07;14.70;;;8.83;;
20749;SDS011;10535;50.664;4.564;2023-04-23T02:56:12;19.77;;;8.80;;
20749;SDS011;10535;50.664;4.564;2023-04-23T02:59:09;15.57;;;9.20;;
20749;SDS011;10535;50.664;4.564;2023-04-23T03:02:01;16.63;;;9.77;;
20749;SDS011;10535;50.664;4.564;2023-04-23T03:04:29;17.93;;;8.87;;
20749;SDS011;10535;50.664;4.564;2023-04-23T03:07:28;19.87;;;9.80;;
20749;SDS011;10535;50.664;4.564;2023-04-23T03:09:58;15.23;;;8.67;;
20749;SDS011;10535;50.664;4.564;2023-04-23T03:12:51;14.10;;;8.37;;
20749;SDS011;10535;50.664;4.564;2023-04-23T03:15:53;14.63;;;9.53;;
20749;SDS011;10535;50.664;4.564;2023-04-23T03:18:27;15.60;;;8.87;;
20749;SDS011;10535;50.664;4.564;2023-04-23T03:21:12;14.70;;;7.83;;
20749;SDS011;10535;50.664;4.564;2023-04-23T03:23:48;13.37;;;8.23;;
20749;SDS011;10535;50.664;4.564;2023-04-23T03:26:29;16.70;;;9.10;;
20749;SDS011;10535;50.664;4.564;2023-04-23T03:29:47;17.30;;;8.43;;
20749;SDS011;10535;50.664;4.564;2023-04-23T03:32:48;11.60;;;7.27;;
20749;SDS011;10535;50.664;4.564;2023-04-23T03:35:51;17.07;;;8.03;;
20749;SDS011;10535;50.664;4.564;2023-04-23T03:38:48;16.23;;;7.53;;
20749;SDS011;10535;50.664;4.564;2023-04-23T03:41:34;14.83;;;7.20;;
20749;SDS011;10535;50.664;4.564;2023-04-23T03:44:08;18.80;;;8.03;;
20749;SDS011;10535;50.664;4.564;2023-04-23T03:46:44;12.10;;;7.43;;
20749;SDS011;10535;50.664;4.564;2023-04-23T03:49:29;16.13;;;7.50;;
20749;SDS011;10535;50.664;4.564;2023-04-23T03:52:07;13.87;;;7.53;;
20749;SDS011;10535;50.664;4.564;2023-04-23T03:55:12;13.23;;;6.73;;
20749;SDS011;10535;50.664;4.564;2023-04-23T03:58:01;12.23;;;7.07;;
20749;SDS011;10535;50.664;4.564;2023-04-23T04:01:22;12.03;;;6.87;;
20749;SDS011;10535;50.664;4.564;2023-04-23T04:03:52;15.97;;;7.70;;
20749;SDS011;10535;50.664;4.564;2023-04-23T04:06:29;13.10;;;7.00;;
20749;SDS011;10535;50.664;4.564;2023-04-23T04:09:24;12.17;;;7.27;;
20749;SDS011;10535;50.664;4.564;2023-04-23T04:12:17;11.90;;;6.47;;
20749;SDS011;10535;50.664;4.564;2023-04-23T04:14:50;12.13;;;7.23;;
20749;SDS011;10535;50.664;4.564;2023-04-23T04:17:38;12.07;;;6.67;;
20749;SDS011;10535;50.664;4.564;2023-04-23T04:20:37;10.63;;;6.17;;
20749;SDS011;10535;50.664;4.564;2023-04-23T04:26:07;11.67;;;6.43;;
20749;SDS011;10535;50.664;4.564;2023-04-23T04:29:23;14.70;;;7.37;;
20749;SDS011;10535;50.664;4.564;2023-04-23T04:32:32;10.03;;;5.90;;
20749;SDS011;10535;50.664;4.564;2023-04-23T04:35:42;10.13;;;6.13;;
20749;SDS011;10535;50.664;4.564;2023-04-23T04:38:22;10.37;;;5.77;;
20749;SDS011;10535;50.664;4.564;2023-04-23T04:40:54;10.93;;;6.37;;
20749;SDS011;10535;50.664;4.564;2023-04-23T04:43:52;11.63;;;6.43;;
20749;SDS011;10535;50.664;4.564;2023-04-23T04:47:24;10.27;;;6.47;;
20749;SDS011;10535;50.664;4.564;2023-04-23T04:50:19;17.50;;;5.90;;
20749;SDS011;10535;50.664;4.564;2023-04-23T04:53:01;12.93;;;6.23;;
20749;SDS011;10535;50.664;4.564;2023-04-23T04:55:30;12.37;;;6.57;;
20749;SDS011;10535;50.664;4.564;2023-04-23T04:58:13;11.13;;;5.50;;
20749;SDS011;10535;50.664;4.564;2023-04-23T05:01:11;12.60;;;6.43;;
20749;SDS011;10535;50.664;4.564;2023-04-23T05:03:51;10.47;;;5.10;;
20749;SDS011;10535;50.664;4.564;2023-04-23T05:06:19;12.23;;;6.60;;
20749;SDS011;10535;50.664;4.564;2023-04-23T05:08:49;13.37;;;6.23;;
20749;SDS011;10535;50.664;4.564;2023-04-23T05:11:29;12.13;;;6.30;;
20749;SDS011;10535;50.664;4.564;2023-04-23T05:14:14;11.80;;;6.20;;
20749;SDS011;10535;50.664;4.564;2023-04-23T05:20:02;10.27;;;5.90;;
20749;SDS011;10535;50.664;4.564;2023-04-23T05:22:47;10.73;;;6.17;;
20749;SDS011;10535;50.664;4.564;2023-04-23T05:25:31;15.20;;;6.67;;
20749;SDS011;10535;50.664;4.564;2023-04-23T05:29:02;18.37;;;6.27;;
20749;SDS011;10535;50.664;4.564;2023-04-23T05:34:20;13.33;;;6.23;;
20749;SDS011;10535;50.664;4.564;2023-04-23T05:36:51;11.90;;;5.93;;
20749;SDS011;10535;50.664;4.564;2023-04-23T05:39:40;11.33;;;6.00;;
20749;SDS011;10535;50.664;4.564;2023-04-23T05:43:03;11.63;;;6.10;;
20749;SDS011;10535;50.664;4.564;2023-04-23T05:45:56;14.13;;;5.97;;
20749;SDS011;10535;50.664;4.564;2023-04-23T05:48:42;14.50;;;6.30;;
20749;SDS011;10535;50.664;4.564;2023-04-23T05:51:08;11.00;;;5.13;;
20749;SDS011;10535;50.664;4.564;2023-04-23T05:53:50;8.90;;;4.83;;
20749;SDS011;10535;50.664;4.564;2023-04-23T05:56:15;9.33;;;5.17;;
20749;SDS011;10535;50.664;4.564;2023-04-23T05:59:23;8.40;;;5.23;;
20749;SDS011;10535;50.664;4.564;2023-04-23T06:02:09;6.17;;;4.40;;
20749;SDS011;10535;50.664;4.564;2023-04-23T06:04:47;11.00;;;4.57;;
20749;SDS011;10535;50.664;4.564;2023-04-23T06:08:16;8.53;;;4.10;;
20749;SDS011;10535;50.664;4.564;2023-04-23T06:10:51;11.20;;;4.67;;
20749;SDS011;10535;50.664;4.564;2023-04-23T06:13:30;7.93;;;4.60;;
20749;SDS011;10535;50.664;4.564;2023-04-23T06:16:11;7.57;;;3.53;;
20749;SDS011;10535;50.664;4.564;2023-04-23T06:19:25;10.70;;;3.73;;
20749;SDS011;10535;50.664;4.564;2023-04-23T06:22:14;10.33;;;3.70;;
20749;SDS011;10535;50.664;4.564;2023-04-23T06:27:39;9.27;;;3.90;;
20749;SDS011;10535;50.664;4.564;2023-04-23T06:30:11;7.93;;;3.10;;
20749;SDS011;10535;50.664;4.564;2023-04-23T06:33:09;6.17;;;2.83;;
20749;SDS011;10535;50.664;4.564;2023-04-23T06:35:36;6.97;;;2.90;;
20749;SDS011;10535;50.664;4.564;2023-04-23T06:38:06;4.27;;;2.70;;
20749;SDS011;10535;50.664;4.564;2023-04-23T06:41:30;6.53;;;3.30;;
20749;SDS011;10535;50.664;4.564;2023-04-23T06:44:29;5.00;;;2.73;;
20749;SDS011;10535;50.664;4.564;2023-04-23T06:46:58;4.43;;;2.67;;
20749;SDS011;10535;50.664;4.564;2023-04-23T06:49:53;4.07;;;2.30;;
20749;SDS011;10535;50.664;4.564;2023-04-23T06:52:39;5.00;;;1.73;;
20749;SDS011;10535;50.664;4.564;2023-04-23T06:55:05;5.10;;;1.80;;
20749;SDS011;10535;50.664;4.564;2023-04-23T06:57:33;6.63;;;2.27;;
20749;SDS011;10535;50.664;4.564;2023-04-23T07:00:00;3.50;;;2.10;;
20749;SDS011;10535;50.664;4.564;2023-04-23T07:02:28;3.30;;;2.40;;
20749;SDS011;10535;50.664;4.564;2023-04-23T07:05:19;5.00;;;2.87;;
20749;SDS011;10535;50.664;4.564;2023-04-23T07:07:45;4.13;;;2.07;;
20749;SDS011;10535;50.664;4.564;2023-04-23T07:10:40;8.20;;;3.07;;
20749;SDS011;10535;50.664;4.564;2023-04-23T07:13:08;7.53;;;2.83;;
20749;SDS011;10535;50.664;4.564;2023-04-23T07:15:41;4.17;;;2.40;;
20749;SDS011;10535;50.664;4.564;2023-04-23T07:18:22;3.97;;;2.60;;
20749;SDS011;10535;50.664;4.564;2023-04-23T07:20:49;10.27;;;2.90;;
20749;SDS011;10535;50.664;4.564;2023-04-23T07:23:15;8.70;;;2.37;;
20749;SDS011;10535;50.664;4.564;2023-04-23T07:25:44;7.83;;;3.10;;
20749;SDS011;10535;50.664;4.564;2023-04-23T07:28:10;6.33;;;2.37;;
20749;SDS011;10535;50.664;4.564;2023-04-23T07:30:59;5.87;;;2.63;;
20749;SDS011;10535;50.664;4.564;2023-04-23T07:33:46;3.97;;;2.33;;
20749;SDS011;10535;50.664;4.564;2023-04-23T07:36:12;5.43;;;1.97;;
20749;SDS011;10535;50.664;4.564;2023-04-23T07:38:39;3.30;;;2.00;;
20749;SDS011;10535;50.664;4.564;2023-04-23T07:41:09;3.40;;;1.93;;
20749;SDS011;10535;50.664;4.564;2023-04-23T07:43:35;4.20;;;1.93;;
20749;SDS011;10535;50.664;4.564;2023-04-23T07:46:00;9.63;;;2.63;;
20749;SDS011;10535;50.664;4.564;2023-04-23T07:48:26;5.37;;;2.27;;
20749;SDS011;10535;50.664;4.564;2023-04-23T07:50:52;8.13;;;2.80;;
20749;SDS011;10535;50.664;4.564;2023-04-23T07:53:18;2.53;;;1.93;;
20749;SDS011;10535;50.664;4.564;2023-04-23T07:55:43;4.47;;;2.90;;
20749;SDS011;10535;50.664;4.564;2023-04-23T07:58:09;5.77;;;2.30;;
20749;SDS011;10535;50.664;4.564;2023-04-23T08:00:35;4.13;;;2.30;;
20749;SDS011;10535;50.664;4.564;2023-04-23T08:03:00;5.67;;;2.63;;
20749;SDS011;10535;50.664;4.564;2023-04-23T08:05:26;4.07;;;2.40;;
20749;SDS011;10535;50.664;4.564;2023-04-23T08:07:52;6.50;;;2.20;;
20749;SDS011;10535;50.664;4.564;2023-04-23T08:10:17;7.47;;;2.20;;
20749;SDS011;10535;50.664;4.564;2023-04-23T08:12:43;8.30;;;2.27;;
20749;SDS011;10535;50.664;4.564;2023-04-23T08:15:09;4.37;;;2.60;;
20749;SDS011;10535;50.664;4.564;2023-04-23T08:17:35;4.97;;;2.03;;
20749;SDS011;10535;50.664;4.564;2023-04-23T08:20:01;6.00;;;2.70;;
20749;SDS011;10535;50.664;4.564;2023-04-23T08:22:28;6.83;;;2.60;;
20749;SDS011;10535;50.664;4.564;2023-04-23T08:24:53;10.53;;;2.50;;
20749;SDS011;10535;50.664;4.564;2023-04-23T08:27:19;6.80;;;2.47;;
20749;SDS011;10535;50.664;4.564;2023-04-23T08:29:45;5.40;;;2.10;;
20749;SDS011;10535;50.664;4.564;2023-04-23T08:32:11;3.13;;;2.27;;
20749;SDS011;10535;50.664;4.564;2023-04-23T08:34:37;2.63;;;1.50;;
20749;SDS011;10535;50.664;4.564;2023-04-23T08:37:03;6.30;;;1.77;;
20749;SDS011;10535;50.664;4.564;2023-04-23T08:39:33;1.73;;;1.57;;
20749;SDS011;10535;50.664;4.564;2023-04-23T08:42:01;5.93;;;1.50;;
20749;SDS011;10535;50.664;4.564;2023-04-23T08:44:34;5.10;;;1.97;;
20749;SDS011;10535;50.664;4.564;2023-04-23T08:47:02;6.13;;;1.93;;
20749;SDS011;10535;50.664;4.564;2023-04-23T08:49:32;3.90;;;1.87;;
20749;SDS011;10535;50.664;4.564;2023-04-23T08:52:03;7.37;;;2.00;;
20749;SDS011;10535;50.664;4.564;2023-04-23T08:54:38;7.83;;;2.17;;
20749;SDS011;10535;50.664;4.564;2023-04-23T08:57:08;6.00;;;2.07;;
20749;SDS011;10535;50.664;4.564;2023-04-23T08:59:34;2.80;;;1.80;;
20749;SDS011;10535;50.664;4.564;2023-04-23T09:02:01;9.10;;;1.83;;
20749;SDS011;10535;50.664;4.564;2023-04-23T09:04:32;6.20;;;1.50;;
20749;SDS011;10535;50.664;4.564;2023-04-23T09:06:58;2.37;;;1.67;;
20749;SDS011;10535;50.664;4.564;2023-04-23T09:09:25;8.37;;;1.97;;
20749;SDS011;10535;50.664;4.564;2023-04-23T09:11:54;3.83;;;1.50;;
20749;SDS011;10535;50.664;4.564;2023-04-23T09:14:21;3.70;;;1.70;;
20749;SDS011;10535;50.664;4.564;2023-04-23T09:16:49;4.37;;;1.70;;
20749;SDS011;10535;50.664;4.564;2023-04-23T09:19:15;4.90;;;2.00;;
20749;SDS011;10535;50.664;4.564;2023-04-23T09:21:42;7.83;;;1.80;;
20749;SDS011;10535;50.664;4.564;2023-04-23T09:24:10;2.93;;;1.00;;
20749;SDS011;10535;50.664;4.564;2023-04-23T09:26:42;3.37;;;1.87;;
20749;SDS011;10535;50.664;4.564;2023-04-23T09:29:13;4.33;;;1.47;;
20749;SDS011;10535;50.664;4.564;2023-04-23T09:31:46;5.70;;;1.43;;
20749;SDS011;10535;50.664;4.564;2023-04-23T09:34:16;3.77;;;1.00;;
20749;SDS011;10535;50.664;4.564;2023-04-23T09:36:47;3.33;;;1.27;;
20749;SDS011;10535;50.664;4.564;2023-04-23T09:39:15;1.27;;;0.93;;
20749;SDS011;10535;50.664;4.564;2023-04-23T09:41:42;3.63;;;1.53;;
20749;SDS011;10535;50.664;4.564;2023-04-23T09:44:10;7.87;;;1.93;;
20749;SDS011;10535;50.664;4.564;2023-04-23T09:46:42;3.40;;;1.23;;
20749;SDS011;10535;50.664;4.564;2023-04-23T09:49:08;3.23;;;1.07;;
20749;SDS011;10535;50.664;4.564;2023-04-23T09:51:45;3.77;;;0.83;;
20749;SDS011;10535;50.664;4.564;2023-04-23T09:54:21;6.30;;;1.30;;
20749;SDS011;10535;50.664;4.564;2023-04-23T09:56:49;4.77;;;1.03;;
20749;SDS011;10535;50.664;4.564;2023-04-23T10:01:47;5.60;;;1.20;;
20749;SDS011;10535;50.664;4.564;2023-04-23T10:04:36;6.57;;;1.10;;
20749;SDS011;10535;50.664;4.564;2023-04-23T10:07:14;8.60;;;1.97;;
20749;SDS011;10535;50.664;4.564;2023-04-23T10:09:43;2.20;;;1.10;;
20749;SDS011;10535;50.664;4.564;2023-04-23T10:12:08;3.80;;;1.27;;
20749;SDS011;10535;50.664;4.564;2023-04-23T10:14:36;4.47;;;1.70;;
20749;SDS011;10535;50.664;4.564;2023-04-23T10:17:23;4.93;;;1.73;;
20749;SDS011;10535;50.664;4.564;2023-04-23T10:19:49;6.03;;;1.10;;
20749;SDS011;10535;50.664;4.564;2023-04-23T10:22:16;5.20;;;1.27;;
20749;SDS011;10535;50.664;4.564;2023-04-23T10:24:45;7.37;;;1.87;;
20749;SDS011;10535;50.664;4.564;2023-04-23T10:27:20;1.03;;;0.93;;
20749;SDS011;10535;50.664;4.564;2023-04-23T10:29:50;8.73;;;1.60;;
20749;SDS011;10535;50.664;4.564;2023-04-23T10:32:19;4.73;;;1.33;;
20749;SDS011;10535;50.664;4.564;2023-04-23T10:34:46;4.77;;;1.50;;
20749;SDS011;10535;50.664;4.564;2023-04-23T10:37:12;4.13;;;1.10;;
20749;SDS011;10535;50.664;4.564;2023-04-23T10:39:43;3.30;;;0.97;;
20749;SDS011;10535;50.664;4.564;2023-04-23T10:42:11;2.30;;;1.00;;
20749;SDS011;10535;50.664;4.564;2023-04-23T10:44:38;4.07;;;0.97;;
20749;SDS011;10535;50.664;4.564;2023-04-23T10:47:06;5.57;;;1.50;;
20749;SDS011;10535;50.664;4.564;2023-04-23T10:49:36;3.83;;;1.10;;
20749;SDS011;10535;50.664;4.564;2023-04-23T10:52:03;5.27;;;1.10;;
20749;SDS011;10535;50.664;4.564;2023-04-23T10:54:34;3.97;;;1.40;;
20749;SDS011;10535;50.664;4.564;2023-04-23T10:57:01;8.03;;;1.77;;
20749;SDS011;10535;50.664;4.564;2023-04-23T10:59:28;6.93;;;2.00;;
20749;SDS011;10535;50.664;4.564;2023-04-23T11:02:04;3.30;;;1.70;;
20749;SDS011;10535;50.664;4.564;2023-04-23T11:04:32;6.90;;;1.37;;
20749;SDS011;10535;50.664;4.564;2023-04-23T11:07:09;5.73;;;1.30;;
20749;SDS011;10535;50.664;4.564;2023-04-23T11:14:49;4.73;;;1.10;;
20749;SDS011;10535;50.664;4.564;2023-04-23T11:17:16;3.90;;;1.00;;
20749;SDS011;10535;50.664;4.564;2023-04-23T11:22:35;0.97;;;0.60;;
20749;SDS011;10535;50.664;4.564;2023-04-23T11:25:02;6.53;;;1.00;;
20749;SDS011;10535;50.664;4.564;2023-04-23T11:27:30;2.97;;;1.37;;
20749;SDS011;10535;50.664;4.564;2023-04-23T11:29:57;3.00;;;1.20;;
20749;SDS011;10535;50.664;4.564;2023-04-23T11:32:23;4.47;;;1.07;;
20749;SDS011;10535;50.664;4.564;2023-04-23T11:34:51;6.70;;;1.27;;
20749;SDS011;10535;50.664;4.564;2023-04-23T11:37:17;3.57;;;1.07;;
20749;SDS011;10535;50.664;4.564;2023-04-23T11:39:43;2.90;;;0.80;;
20749;SDS011;10535;50.664;4.564;2023-04-23T11:42:11;3.07;;;0.97;;
20749;SDS011;10535;50.664;4.564;2023-04-23T11:44:41;6.33;;;1.33;;
20749;SDS011;10535;50.664;4.564;2023-04-23T11:47:08;2.70;;;1.10;;
20749;SDS011;10535;50.664;4.564;2023-04-23T11:49:35;0.70;;;0.70;;
20749;SDS011;10535;50.664;4.564;2023-04-23T11:52:05;1.80;;;0.60;;
20749;SDS011;10535;50.664;4.564;2023-04-23T11:54:31;2.10;;;1.10;;
20749;SDS011;10535;50.664;4.564;2023-04-23T11:56:58;3.30;;;1.10;;
20749;SDS011;10535;50.664;4.564;2023-04-23T11:59:24;1.10;;;0.73;;
20749;SDS011;10535;50.664;4.564;2023-04-23T12:01:54;5.60;;;1.20;;
20749;SDS011;10535;50.664;4.564;2023-04-23T12:04:23;2.87;;;1.40;;
20749;SDS011;10535;50.664;4.564;2023-04-23T12:06:51;1.70;;;1.07;;
20749;SDS011;10535;50.664;4.564;2023-04-23T12:09:19;2.13;;;0.90;;
20749;SDS011;10535;50.664;4.564;2023-04-23T12:11:46;2.47;;;1.07;;
20749;SDS011;10535;50.664;4.564;2023-04-23T12:14:15;6.17;;;1.67;;
20749;SDS011;10535;50.664;4.564;2023-04-23T12:16:42;3.77;;;1.63;;
20749;SDS011;10535;50.664;4.564;2023-04-23T12:19:14;7.57;;;1.70;;
20749;SDS011;10535;50.664;4.564;2023-04-23T12:21:51;3.70;;;1.27;;
20749;SDS011;10535;50.664;4.564;2023-04-23T12:24:22;5.60;;;1.53;;
20749;SDS011;10535;50.664;4.564;2023-04-23T12:26:52;1.83;;;1.30;;
20749;SDS011;10535;50.664;4.564;2023-04-23T12:29:20;4.50;;;1.43;;
20749;SDS011;10535;50.664;4.564;2023-04-23T12:31:47;2.87;;;1.17;;
20749;SDS011;10535;50.664;4.564;2023-04-23T12:34:14;2.27;;;1.17;;
20749;SDS011;10535;50.664;4.564;2023-04-23T12:36:45;1.93;;;1.20;;
20749;SDS011;10535;50.664;4.564;2023-04-23T12:39:27;5.07;;;1.40;;
20749;SDS011;10535;50.664;4.564;2023-04-23T12:41:56;4.80;;;1.50;;
20749;SDS011;10535;50.664;4.564;2023-04-23T12:44:28;5.80;;;1.33;;
20749;SDS011;10535;50.664;4.564;2023-04-23T12:46:56;5.13;;;1.50;;
20749;SDS011;10535;50.664;4.564;2023-04-23T12:49:23;2.60;;;1.53;;
20749;SDS011;10535;50.664;4.564;2023-04-23T12:51:51;1.73;;;1.30;;
20749;SDS011;10535;50.664;4.564;2023-04-23T12:54:22;1.53;;;1.40;;
20749;SDS011;10535;50.664;4.564;2023-04-23T12:56:53;4.07;;;1.20;;
20749;SDS011;10535;50.664;4.564;2023-04-23T12:59:19;5.10;;;1.67;;
20749;SDS011;10535;50.664;4.564;2023-04-23T13:01:45;2.47;;;1.37;;
20749;SDS011;10535;50.664;4.564;2023-04-23T13:04:11;13.13;;;5.40;;
20749;SDS011;10535;50.664;4.564;2023-04-23T13:06:36;3.80;;;1.80;;
20749;SDS011;10535;50.664;4.564;2023-04-23T13:09:03;3.37;;;1.63;;
20749;SDS011;10535;50.664;4.564;2023-04-23T13:11:29;3.63;;;1.50;;
20749;SDS011;10535;50.664;4.564;2023-04-23T13:13:58;3.03;;;1.73;;
20749;SDS011;10535;50.664;4.564;2023-04-23T13:16:25;2.80;;;1.30;;
20749;SDS011;10535;50.664;4.564;2023-04-23T13:18:50;2.70;;;1.30;;
20749;SDS011;10535;50.664;4.564;2023-04-23T13:21:17;3.23;;;1.33;;
20749;SDS011;10535;50.664;4.564;2023-04-23T13:23:43;2.30;;;1.23;;
20749;SDS011;10535;50.664;4.564;2023-04-23T13:26:08;2.37;;;1.40;;
20749;SDS011;10535;50.664;4.564;2023-04-23T13:28:34;4.93;;;2.03;;
20749;SDS011;10535;50.664;4.564;2023-04-23T13:31:01;3.63;;;1.50;;
20749;SDS011;10535;50.664;4.564;2023-04-23T13:33:27;1.60;;;1.30;;
20749;SDS011;10535;50.664;4.564;2023-04-23T13:35:52;2.57;;;1.80;;
20749;SDS011;10535;50.664;4.564;2023-04-23T13:38:20;2.87;;;1.50;;
20749;SDS011;10535;50.664;4.564;2023-04-23T13:40:50;3.03;;;1.23;;
20749;SDS011;10535;50.664;4.564;2023-04-23T13:43:16;6.73;;;1.90;;
20749;SDS011;10535;50.664;4.564;2023-04-23T13:45:41;1.70;;;1.20;;
20749;SDS011;10535;50.664;4.564;2023-04-23T13:48:07;15.30;;;9.00;;
20749;SDS011;10535;50.664;4.564;2023-04-23T13:50:33;2.20;;;1.53;;
20749;SDS011;10535;50.664;4.564;2023-04-23T13:52:59;1.97;;;1.27;;
20749;SDS011;10535;50.664;4.564;2023-04-23T13:55:25;2.03;;;1.67;;
20749;SDS011;10535;50.664;4.564;2023-04-23T13:57:50;1.83;;;1.13;;
20749;SDS011;10535;50.664;4.564;2023-04-23T14:00:21;6.13;;;1.90;;
20749;SDS011;10535;50.664;4.564;2023-04-23T14:02:47;2.83;;;1.27;;
20749;SDS011;10535;50.664;4.564;2023-04-23T14:05:13;1.83;;;1.37;;
20749;SDS011;10535;50.664;4.564;2023-04-23T14:07:39;3.63;;;1.70;;
20749;SDS011;10535;50.664;4.564;2023-04-23T14:10:05;3.63;;;1.70;;
20749;SDS011;10535;50.664;4.564;2023-04-23T14:12:32;2.37;;;1.27;;
20749;SDS011;10535;50.664;4.564;2023-04-23T14:14:58;3.77;;;1.30;;
20749;SDS011;10535;50.664;4.564;2023-04-23T14:17:24;2.30;;;1.50;;
20749;SDS011;10535;50.664;4.564;2023-04-23T14:19:49;2.20;;;1.30;;
20749;SDS011;10535;50.664;4.564;2023-04-23T14:22:15;2.43;;;1.60;;
20749;SDS011;10535;50.664;4.564;2023-04-23T14:24:44;1.67;;;1.50;;
20749;SDS011;10535;50.664;4.564;2023-04-23T14:27:13;7.67;;;2.60;;
20749;SDS011;10535;50.664;4.564;2023-04-23T14:29:40;2.80;;;1.30;;
20749;SDS011;10535;50.664;4.564;2023-04-23T14:32:06;1.40;;;1.30;;
20749;SDS011;10535;50.664;4.564;2023-04-23T14:34:31;3.37;;;1.50;;
20749;SDS011;10535;50.664;4.564;2023-04-23T14:37:01;4.43;;;1.70;;
20749;SDS011;10535;50.664;4.564;2023-04-23T14:39:27;1.90;;;1.70;;
20749;SDS011;10535;50.664;4.564;2023-04-23T14:41:53;3.20;;;1.20;;
20749;SDS011;10535;50.664;4.564;2023-04-23T14:44:19;2.87;;;1.20;;
20749;SDS011;10535;50.664;4.564;2023-04-23T14:46:47;2.23;;;1.40;;
20749;SDS011;10535;50.664;4.564;2023-04-23T14:49:15;4.70;;;1.93;;
20749;SDS011;10535;50.664;4.564;2023-04-23T14:51:42;2.07;;;1.23;;
20749;SDS011;10535;50.664;4.564;2023-04-23T14:54:08;5.47;;;1.63;;
20749;SDS011;10535;50.664;4.564;2023-04-23T14:56:34;1.53;;;1.23;;
20749;SDS011;10535;50.664;4.564;2023-04-23T14:59:01;1.40;;;1.30;;
20749;SDS011;10535;50.664;4.564;2023-04-23T15:01:27;1.47;;;1.27;;
20749;SDS011;10535;50.664;4.564;2023-04-23T15:03:54;3.67;;;1.37;;
20749;SDS011;10535;50.664;4.564;2023-04-23T15:06:20;1.53;;;1.30;;
20749;SDS011;10535;50.664;4.564;2023-04-23T15:08:46;1.03;;;0.93;;
20749;SDS011;10535;50.664;4.564;2023-04-23T15:11:12;4.30;;;2.40;;
20749;SDS011;10535;50.664;4.564;2023-04-23T15:13:42;2.07;;;1.40;;
20749;SDS011;10535;50.664;4.564;2023-04-23T15:18:56;1.27;;;0.97;;
20749;SDS011;10535;50.664;4.564;2023-04-23T15:21:23;1.10;;;1.00;;
20749;SDS011;10535;50.664;4.564;2023-04-23T15:23:50;3.37;;;1.97;;
20749;SDS011;10535;50.664;4.564;2023-04-23T15:26:16;2.27;;;1.63;;
20749;SDS011;10535;50.664;4.564;2023-04-23T15:28:42;2.47;;;1.33;;
20749;SDS011;10535;50.664;4.564;2023-04-23T15:31:07;2.33;;;1.50;;
20749;SDS011;10535;50.664;4.564;2023-04-23T15:33:33;1.07;;;0.97;;
20749;SDS011;10535;50.664;4.564;2023-04-23T15:35:59;2.37;;;1.63;;
20749;SDS011;10535;50.664;4.564;2023-04-23T15:38:25;2.63;;;1.20;;
20749;SDS011;10535;50.664;4.564;2023-04-23T15:40:51;1.00;;;0.90;;
20749;SDS011;10535;50.664;4.564;2023-04-23T15:43:19;0.60;;;0.60;;
20749;SDS011;10535;50.664;4.564;2023-04-23T15:45:45;1.30;;;1.00;;
20749;SDS011;10535;50.664;4.564;2023-04-23T15:48:14;2.30;;;0.80;;
20749;SDS011;10535;50.664;4.564;2023-04-23T15:50:41;1.73;;;1.10;;
20749;SDS011;10535;50.664;4.564;2023-04-23T15:53:07;2.67;;;1.33;;
20749;SDS011;10535;50.664;4.564;2023-04-23T15:55:33;0.73;;;0.73;;
20749;SDS011;10535;50.664;4.564;2023-04-23T15:57:59;1.20;;;1.07;;
20749;SDS011;10535;50.664;4.564;2023-04-23T16:00:28;0.90;;;0.80;;
20749;SDS011;10535;50.664;4.564;2023-04-23T16:02:54;1.63;;;1.40;;
20749;SDS011;10535;50.664;4.564;2023-04-23T16:05:20;0.90;;;0.90;;
20749;SDS011;10535;50.664;4.564;2023-04-23T16:07:46;3.53;;;0.83;;
20749;SDS011;10535;50.664;4.564;2023-04-23T16:10:11;1.83;;;0.80;;